Airfield :
LOGIN :

Register | Disclaimer

   EN    FR    IT 

 










Legend :    VFR   Marginal VFR   IFR   Intensive IFR   Very Intensive IFR
Visi :
Ceiling :
>= 8 km
>= 3000ft
5 to 8 km
1000 to 3000 ft
1500m to 5 km
500 to 1000 ft
800 to 1500m
200 to 500 ft
< 800m
< 200 ft
Symbols :   Thunderstorms  Fog  Heavy snow  Heavy precipitations  Wind > 20 kt
SIGMETs :     Misc.  Thunderstorms  Icing  Turbulence  Mountain Waves  Volcanic Ashes






- Airport Elevation : 574 ft
- IATA code : TEQ


LTBU - Corlu

CURRENT METAR :
  • 041950Z 26007KT CAVOK 16/12 Q1013 RMK RWY22 25008KT

EXPIRED METARs :
  • 041920Z 25006KT CAVOK 16/12 Q1013 RMK RWY22 25008KT
  • 041850Z 24008KT CAVOK 16/12 Q1013 RMK RWY22 24009KT
  • 041820Z 24007KT CAVOK 17/13 Q1013 RMK RWY22 24009KT
  • 041750Z 22007KT CAVOK 18/14 Q1012 RMK RWY22 23008KT
  • 041720Z 24010KT CAVOK 20/14 Q1012 RMK RWY22 23009KT
  • 041650Z 23010KT CAVOK 21/14 Q1012 RMK RWY22 23011KT

TAF TAF LTBU
Valid from the 04 at 18:00 until the 05 at 18:00 UTC


041640Z 0418/0518 20004KT CAVOK
BECMG 0505/0508 20014KT
BECMG 0514/0517 VRB02KT



MET'MAP, your aeronautical weather chart ! - Copyright ORBIFLY December 2007 - Disclaimer

ORBIFLY MET'MAP TEAM :

Programming & Development : Alexandra Zaïnal
Concept & original design : Baudouin d'Aumeries
Assistance for programming : Marc-Olivier Méhu
Technical & hardware support : Manuel Goepfert

Contact : metmap@orbifly.com




SOURCES & CREDITS :

   NOAA